Time;durP1;ratioP1;P1;durP2;ratioP2;P2;SDS_P1;SDS_P2;PMS_P1;PMS_P2;Temp;Humidity;BMP_temperature;BMP_pressure;BME280_temperature;BME280_humidity;BME280_pressure;Samples;Min_cycle;Max_cycle;Signal;HPM_P1;HPM_P2
2022/01/30 00:01:20;;;;;;;34.38;4.97;;;5.90;99.90;;;;;;4935838;29;20099;-81
2022/01/30 00:03:46;;;;;;;37.40;5.28;;;5.90;99.90;;;;;;4951473;29;20039;-80
2022/01/30 00:06:11;;;;;;;27.42;5.07;;;5.90;99.90;;;;;;4951935;29;20134;-80
2022/01/30 00:08:37;;;;;;;31.88;5.90;;;6.00;99.90;;;;;;4935819;29;20154;-81
2022/01/30 00:11:11;;;;;;;33.72;5.35;;;5.90;99.90;;;;;;4949985;29;20219;-81
2022/01/30 00:13:37;;;;;;;45.42;4.80;;;6.00;99.90;;;;;;4950521;28;20518;-79
2022/01/30 00:16:06;;;;;;;29.52;5.55;;;6.80;99.90;;;;;;4951293;29;20054;-82
2022/01/30 00:24:01;;;;;;;23.80;3.65;;;6.70;99.90;;;;;;4841805;29;20069;-80
2022/01/30 00:26:30;;;;;;;25.67;4.60;;;6.20;99.90;;;;;;4920059;29;20071;-79
2022/01/30 00:28:56;;;;;;;30.55;4.28;;;6.30;99.90;;;;;;4931976;29;20044;-79
2022/01/30 00:31:24;;;;;;;32.65;5.05;;;6.70;99.90;;;;;;4915814;29;20060;-79
2022/01/30 00:33:50;;;;;;;35.85;4.85;;;7.30;99.90;;;;;;4915870;29;20055;-80
2022/01/30 00:36:15;;;;;;;27.58;4.70;;;6.20;99.90;;;;;;4915458;29;20043;-79
2022/01/30 00:38:41;;;;;;;29.30;4.70;;;7.10;99.90;;;;;;4931531;29;20074;-82
2022/01/30 00:41:08;;;;;;;23.85;4.10;;;6.20;99.90;;;;;;4931885;29;20055;-86
2022/01/30 00:43:33;;;;;;;28.25;4.72;;;6.00;99.90;;;;;;4915859;29;20044;-81
2022/01/30 00:45:59;;;;;;;25.40;3.40;;;5.90;99.90;;;;;;4931441;29;20059;-80
2022/01/30 00:48:25;;;;;;;25.55;3.47;;;6.00;99.90;;;;;;4931198;29;20123;-78
2022/01/30 00:50:51;;;;;;;20.73;3.33;;;5.90;99.90;;;;;;4915250;29;20052;-79
2022/01/30 00:53:16;;;;;;;21.25;3.30;;;5.80;99.90;;;;;;4930982;29;20585;-80
2022/01/30 00:55:42;;;;;;;26.17;4.45;;;5.70;99.90;;;;;;4915794;29;20055;-80
2022/01/30 00:58:08;;;;;;;23.50;4.07;;;5.70;99.90;;;;;;4980974;28;20506;-84
2022/01/30 01:00:35;;;;;;;16.45;3.28;;;5.70;99.90;;;;;;5011150;28;20485;-81
2022/01/30 01:03:01;;;;;;;23.05;3.47;;;5.70;99.90;;;;;;4993568;28;20128;-79
2022/01/30 01:05:29;;;;;;;31.88;3.17;;;5.60;99.90;;;;;;4993605;28;20432;-79
2022/01/30 01:07:57;;;;;;;35.78;4.78;;;5.60;99.90;;;;;;5011311;28;20053;-79
2022/01/30 01:23:53;;;;;;;33.63;5.03;;;5.50;99.90;;;;;;5030612;28;20515;-80
2022/01/30 01:26:21;;;;;;;26.25;4.85;;;5.50;99.90;;;;;;5030124;28;20096;-78
2022/01/30 01:28:47;;;;;;;27.00;4.95;;;5.50;99.90;;;;;;5012483;28;20059;-80
2022/01/30 01:31:13;;;;;;;34.13;4.72;;;5.50;99.90;;;;;;5030297;28;20065;-81
2022/01/30 01:36:24;;;;;;;33.05;6.10;;;6.40;99.90;;;;;;5030117;28;20476;-79
2022/01/30 01:38:50;;;;;;;32.75;6.18;;;5.60;99.90;;;;;;5012709;28;20049;-79
2022/01/30 01:41:19;;;;;;;38.55;4.38;;;6.60;99.90;;;;;;5012611;28;20473;-81
2022/01/30 01:43:48;;;;;;;36.92;5.75;;;6.50;99.90;;;;;;5030436;28;20045;-79
2022/01/30 01:46:18;;;;;;;46.30;5.57;;;5.50;99.90;;;;;;5012265;28;20061;-80
2022/01/30 01:48:45;;;;;;;29.23;4.65;;;5.40;99.90;;;;;;5012224;28;20488;-79
2022/01/30 01:51:18;;;;;;;31.98;5.72;;;5.40;99.90;;;;;;5012613;28;20083;-80
2022/01/30 01:53:47;;;;;;;46.38;5.90;;;5.40;99.90;;;;;;5030251;28;20055;-80
2022/01/30 01:56:17;;;;;;;33.78;4.90;;;5.30;99.90;;;;;;5030358;28;20053;-80
2022/01/30 01:58:44;;;;;;;30.70;4.35;;;5.20;99.90;;;;;;4995363;28;20140;-81
2022/01/30 02:01:10;;;;;;;29.38;4.65;;;5.20;99.90;;;;;;5029981;28;20037;-80
2022/01/30 02:03:37;;;;;;;35.78;5.65;;;5.30;99.90;;;;;;5030332;28;20555;-81
2022/01/30 02:06:05;;;;;;;40.70;5.45;;;6.20;99.90;;;;;;5030202;28;20050;-79
2022/01/30 02:13:50;;;;;;;41.30;6.03;;;5.40;99.90;;;;;;5012649;28;20189;-79
2022/01/30 02:26:55;;;;;;;29.92;5.28;;;5.60;99.90;;;;;;5030206;28;20049;-80
2022/01/30 02:29:21;;;;;;;40.20;5.68;;;5.50;99.90;;;;;;5030305;28;20511;-82
2022/01/30 02:31:47;;;;;;;40.03;5.45;;;5.50;99.90;;;;;;5011794;28;20492;-83
2022/01/30 02:34:13;;;;;;;35.60;5.45;;;5.40;99.90;;;;;;5029977;28;20065;-80
2022/01/30 02:36:48;;;;;;;48.75;6.57;;;5.80;99.90;;;;;;5030561;28;20447;-80
2022/01/30 02:39:14;;;;;;;49.17;6.78;;;5.50;99.90;;;;;;5016146;28;20050;-81
2022/01/30 02:41:40;;;;;;;38.13;4.82;;;5.50;99.90;;;;;;5015588;28;20048;-79
2022/01/30 02:44:13;;;;;;;36.22;5.38;;;5.60;99.90;;;;;;5034185;28;20045;-81
2022/01/30 02:46:43;;;;;;;41.90;6.05;;;5.60;99.90;;;;;;5016105;28;20429;-81
2022/01/30 02:51:53;;;;;;;39.05;6.65;;;5.60;99.90;;;;;;5016025;28;20057;-81
2022/01/30 02:54:19;;;;;;;28.33;4.25;;;5.60;99.90;;;;;;5033665;28;20048;-80
2022/01/30 02:56:45;;;;;;;31.63;5.32;;;5.60;99.90;;;;;;5033449;28;20057;-81
2022/01/30 02:59:11;;;;;;;42.17;5.97;;;5.60;99.90;;;;;;5033728;28;20052;-84
2022/01/30 03:01:37;;;;;;;46.28;6.47;;;5.50;99.90;;;;;;5015038;28;20403;-81
2022/01/30 03:04:03;;;;;;;44.88;6.20;;;5.50;99.90;;;;;;5033021;28;20045;-82
2022/01/30 03:06:30;;;;;;;35.30;5.63;;;5.50;99.90;;;;;;5033307;28;20045;-79
2022/01/30 03:08:57;;;;;;;31.90;5.43;;;5.80;99.90;;;;;;5033034;28;20052;-80
2022/01/30 03:11:23;;;;;;;39.88;6.38;;;5.50;99.90;;;;;;5033072;28;20044;-80
2022/01/30 03:13:49;;;;;;;32.22;4.80;;;5.50;99.90;;;;;;5033045;28;20085;-80
2022/01/30 03:16:14;;;;;;;31.80;5.18;;;5.40;99.90;;;;;;5033377;28;20068;-80
2022/01/30 03:18:41;;;;;;;32.20;5.32;;;5.40;99.90;;;;;;5014637;28;20096;-83
2022/01/30 03:21:07;;;;;;;41.80;5.32;;;5.80;99.90;;;;;;5033128;28;20041;-80
2022/01/30 03:23:37;;;;;;;37.08;4.57;;;5.50;99.90;;;;;;5033098;28;20049;-80
2022/01/30 03:26:03;;;;;;;36.90;5.22;;;6.30;99.90;;;;;;5032666;28;20095;-81
2022/01/30 03:28:31;;;;;;;38.58;4.85;;;5.60;99.90;;;;;;5032776;28;20547;-80
2022/01/30 03:31:00;;;;;;;32.35;5.88;;;5.60;99.90;;;;;;5032303;28;20151;-79
2022/01/30 03:33:26;;;;;;;38.55;5.53;;;5.60;99.90;;;;;;5028844;28;20061;-80
2022/01/30 03:35:52;;;;;;;38.35;5.60;;;5.60;99.90;;;;;;5032345;28;20037;-80
2022/01/30 03:38:19;;;;;;;41.40;6.60;;;6.50;99.90;;;;;;5032186;28;20056;-78
2022/01/30 03:40:46;;;;;;;43.08;6.07;;;5.60;99.90;;;;;;5032575;28;20419;-81
2022/01/30 03:43:12;;;;;;;29.27;5.97;;;5.60;99.90;;;;;;5014475;28;20132;-80
2022/01/30 03:45:38;;;;;;;36.17;5.72;;;5.70;99.90;;;;;;5032887;28;20128;-79
2022/01/30 03:48:04;;;;;;;42.47;5.50;;;6.40;99.90;;;;;;5013549;28;20056;-80
2022/01/30 03:50:30;;;;;;;32.17;5.45;;;5.70;99.90;;;;;;5014361;28;20056;-80
2022/01/30 03:52:56;;;;;;;46.30;7.18;;;5.80;99.90;;;;;;5031982;28;20484;-79
2022/01/30 03:55:23;;;;;;;44.58;6.35;;;6.50;99.90;;;;;;5031856;28;20507;-80
2022/01/30 03:57:50;;;;;;;45.10;7.20;;;5.80;99.90;;;;;;5032100;28;20045;-80
2022/01/30 04:00:15;;;;;;;47.90;6.20;;;5.80;99.90;;;;;;5031860;28;20045;-80
2022/01/30 04:02:41;;;;;;;47.85;7.63;;;5.80;99.90;;;;;;5031661;28;20517;-81
2022/01/30 04:05:07;;;;;;;42.78;6.22;;;5.80;99.90;;;;;;5014385;28;20050;-79
2022/01/30 04:07:33;;;;;;;43.88;6.53;;;5.90;99.90;;;;;;5031805;28;20087;-79
2022/01/30 04:10:00;;;;;;;39.97;6.00;;;5.80;99.90;;;;;;5032023;28;20048;-78
2022/01/30 04:12:26;;;;;;;40.50;6.30;;;5.80;99.90;;;;;;5013724;28;20060;-80
2022/01/30 04:14:52;;;;;;;48.75;7.28;;;6.80;99.90;;;;;;5031705;28;20041;-80
2022/01/30 04:17:22;;;;;;;50.90;8.23;;;5.80;99.90;;;;;;5031679;28;20055;-81
2022/01/30 04:19:48;;;;;;;35.92;6.18;;;5.80;99.90;;;;;;5013226;28;20069;-81
2022/01/30 04:22:15;;;;;;;41.28;6.43;;;5.70;99.90;;;;;;5013708;28;20064;-79
2022/01/30 04:24:41;;;;;;;45.97;7.88;;;5.60;99.90;;;;;;5031683;28;20512;-80
2022/01/30 04:27:07;;;;;;;33.22;5.80;;;6.30;99.90;;;;;;5013712;28;20401;-80
2022/01/30 04:29:33;;;;;;;41.38;6.80;;;5.60;99.90;;;;;;5031408;28;20038;-80
2022/01/30 04:32:00;;;;;;;38.97;6.22;;;5.50;99.90;;;;;;5013487;28;20049;-80
2022/01/30 04:34:28;;;;;;;44.53;7.18;;;5.40;99.90;;;;;;5031084;28;20063;-80
2022/01/30 04:37:14;;;;;;;41.03;6.28;;;5.40;99.90;;;;;;5031236;28;20456;-79
2022/01/30 04:53:26;;;;;;;60.15;9.10;;;5.30;99.90;;;;;;5012122;28;20584;-80
2022/01/30 05:01:21;;;;;;;48.80;8.13;;;6.40;99.90;;;;;;5011294;28;20300;-81
2022/01/30 05:04:03;;;;;;;54.83;8.20;;;5.40;99.90;;;;;;5029745;28;20040;-81
2022/01/30 05:06:41;;;;;;;45.92;7.30;;;6.40;99.90;;;;;;4995466;28;20081;-82
2022/01/30 05:09:07;;;;;;;54.17;8.40;;;5.40;99.90;;;;;;5030121;28;20034;-80
2022/01/30 05:11:33;;;;;;;58.03;8.43;;;5.40;99.90;;;;;;5030019;28;20044;-80
2022/01/30 05:13:58;;;;;;;42.08;8.05;;;5.40;99.90;;;;;;5012578;28;20044;-86
2022/01/30 05:16:24;;;;;;;33.85;6.60;;;5.40;99.90;;;;;;5030298;28;20409;-81
2022/01/30 05:18:50;;;;;;;29.02;4.88;;;5.30;99.90;;;;;;5030602;28;20076;-81
2022/01/30 05:21:17;;;;;;;27.38;4.85;;;5.30;99.90;;;;;;5030373;28;20033;-82
2022/01/30 05:23:43;;;;;;;36.83;4.88;;;5.20;99.90;;;;;;5012367;28;20049;-80
2022/01/30 05:26:09;;;;;;;43.28;6.75;;;5.20;99.90;;;;;;5029830;28;20400;-83
2022/01/30 05:28:35;;;;;;;49.10;7.72;;;5.20;99.90;;;;;;5030174;28;20049;-80
2022/01/30 05:31:01;;;;;;;52.88;7.63;;;5.20;99.90;;;;;;5012512;28;20045;-80
2022/01/30 05:33:27;;;;;;;55.58;7.78;;;5.10;99.90;;;;;;5012130;28;20049;-80
2022/01/30 05:35:53;;;;;;;58.13;7.78;;;5.10;99.90;;;;;;5029965;28;20054;-82
2022/01/30 05:38:18;;;;;;;49.95;7.97;;;5.20;99.90;;;;;;5012339;28;20091;-81
2022/01/30 05:40:44;;;;;;;62.30;7.97;;;5.20;99.90;;;;;;5029611;28;20106;-82
2022/01/30 05:43:10;;;;;;;63.70;8.70;;;5.20;99.90;;;;;;5030056;28;20057;-80
2022/01/30 05:45:41;;;;;;;40.75;6.57;;;5.20;99.90;;;;;;5029618;28;20488;-80
2022/01/30 05:48:15;;;;;;;56.95;8.75;;;5.20;99.90;;;;;;5029605;28;20076;-80
2022/01/30 05:50:42;;;;;;;50.75;8.15;;;5.20;99.90;;;;;;5030121;28;20045;-80
2022/01/30 05:53:08;;;;;;;60.95;9.00;;;5.20;99.90;;;;;;5011558;28;20051;-79
2022/01/30 05:55:34;;;;;;;61.47;8.57;;;5.20;99.90;;;;;;5029738;28;20049;-79
2022/01/30 05:58:00;;;;;;;47.17;6.95;;;5.30;99.90;;;;;;5011646;28;20495;-80
2022/01/30 06:00:26;;;;;;;58.75;8.25;;;5.30;99.90;;;;;;5011815;28;20049;-80
2022/01/30 06:02:53;;;;;;;57.83;7.47;;;5.30;99.90;;;;;;5029527;28;20084;-80
2022/01/30 06:05:22;;;;;;;51.67;8.27;;;5.30;99.90;;;;;;5029504;28;20136;-80
2022/01/30 06:07:56;;;;;;;48.80;9.45;;;5.30;99.90;;;;;;5029370;28;20041;-79
2022/01/30 06:10:25;;;;;;;56.88;8.88;;;5.30;99.90;;;;;;5029093;28;20053;-80
2022/01/30 06:12:51;;;;;;;45.40;8.13;;;6.00;99.90;;;;;;5014814;28;20061;-79
2022/01/30 06:15:17;;;;;;;46.78;8.52;;;6.20;99.90;;;;;;5015605;28;20087;-79
2022/01/30 06:17:43;;;;;;;46.20;7.80;;;6.20;99.90;;;;;;5015744;28;20033;-80
2022/01/30 06:20:10;;;;;;;49.70;8.88;;;5.40;99.90;;;;;;5033820;28;20056;-87
2022/01/30 06:22:36;;;;;;;47.60;6.97;;;5.40;99.90;;;;;;5033154;28;20064;-80
2022/01/30 06:25:02;;;;;;;42.25;7.88;;;5.90;99.90;;;;;;5015400;28;20065;-80
2022/01/30 06:27:28;;;;;;;58.80;8.57;;;5.50;99.90;;;;;;5033233;28;20042;-78
2022/01/30 06:29:53;;;;;;;44.63;8.38;;;5.40;99.90;;;;;;5015620;28;20148;-81
2022/01/30 06:32:19;;;;;;;50.05;8.73;;;5.40;99.90;;;;;;5014915;28;20053;-83
2022/01/30 06:34:45;;;;;;;50.13;8.48;;;5.40;99.90;;;;;;5032845;28;20076;-80
2022/01/30 06:37:10;;;;;;;55.38;8.10;;;5.40;99.90;;;;;;5015227;28;20056;-80
2022/01/30 06:39:36;;;;;;;51.58;8.43;;;6.20;99.90;;;;;;5032156;28;20133;-78
2022/01/30 06:42:02;;;;;;;60.10;9.50;;;5.40;99.90;;;;;;5007464;28;20049;-79
2022/01/30 06:44:28;;;;;;;59.30;8.90;;;5.50;99.90;;;;;;5033273;28;20057;-80
2022/01/30 06:46:53;;;;;;;49.28;7.18;;;6.10;99.90;;;;;;5032644;28;20046;-79
2022/01/30 06:49:19;;;;;;;48.97;8.27;;;5.90;99.90;;;;;;5014856;28;20049;-82
2022/01/30 06:51:44;;;;;;;43.15;7.97;;;5.40;99.90;;;;;;5014513;28;20042;-80
2022/01/30 06:54:10;;;;;;;45.53;7.60;;;5.50;99.90;;;;;;5014582;28;20076;-81
2022/01/30 06:56:36;;;;;;;49.22;8.25;;;5.70;99.90;;;;;;5032999;28;20536;-80
2022/01/30 06:59:01;;;;;;;45.40;7.65;;;5.50;99.90;;;;;;5032636;28;20060;-79
2022/01/30 07:01:27;;;;;;;54.95;7.85;;;6.40;99.90;;;;;;5032677;28;20041;-83
2022/01/30 07:03:53;;;;;;;45.42;7.32;;;5.90;99.90;;;;;;5013954;28;20057;-80
2022/01/30 07:06:19;;;;;;;39.08;6.65;;;5.60;99.90;;;;;;5014883;28;20057;-79
2022/01/30 07:08:45;;;;;;;48.90;7.82;;;5.60;99.90;;;;;;5014445;28;20045;-79
2022/01/30 07:11:10;;;;;;;43.95;7.47;;;6.50;99.90;;;;;;5014540;28;20053;-81
2022/01/30 07:13:36;;;;;;;41.35;7.80;;;5.60;99.90;;;;;;5014475;28;20136;-78
2022/01/30 07:16:03;;;;;;;52.33;7.97;;;5.60;99.90;;;;;;5031929;28;20049;-80
2022/01/30 07:18:29;;;;;;;50.75;8.13;;;5.60;99.90;;;;;;5032304;28;20129;-79
2022/01/30 07:20:55;;;;;;;56.65;9.80;;;6.30;99.90;;;;;;5032172;28;20132;-79
2022/01/30 07:23:20;;;;;;;46.03;8.68;;;5.60;99.90;;;;;;5013250;28;20118;-80
2022/01/30 07:25:46;;;;;;;55.38;8.48;;;5.60;99.90;;;;;;5032060;28;20434;-79
2022/01/30 07:28:12;;;;;;;47.40;8.32;;;5.50;99.90;;;;;;5013752;28;20445;-79
2022/01/30 07:30:38;;;;;;;53.20;8.45;;;6.30;99.90;;;;;;5032198;28;20386;-79
2022/01/30 07:33:04;;;;;;;54.10;8.15;;;5.50;99.90;;;;;;5031543;28;20099;-77
2022/01/30 07:35:32;;;;;;;49.05;8.05;;;6.40;99.90;;;;;;5024807;28;20045;-78
2022/01/30 07:37:57;;;;;;;42.67;6.55;;;5.50;99.90;;;;;;5032075;28;20073;-79
2022/01/30 07:40:23;;;;;;;45.15;6.95;;;5.50;99.90;;;;;;5031238;28;20088;-80
2022/01/30 07:42:49;;;;;;;50.00;6.68;;;5.50;99.90;;;;;;5031492;28;20064;-84
2022/01/30 07:45:14;;;;;;;40.35;7.05;;;5.90;99.90;;;;;;5013443;28;20037;-81
2022/01/30 07:47:40;;;;;;;52.92;8.23;;;5.40;99.90;;;;;;5031895;28;20037;-79
2022/01/30 07:50:06;;;;;;;49.92;6.75;;;5.80;99.90;;;;;;5031652;28;20477;-80
2022/01/30 07:52:32;;;;;;;41.28;6.30;;;5.40;99.90;;;;;;5031174;28;20048;-81
2022/01/30 07:54:58;;;;;;;39.28;6.63;;;5.40;99.90;;;;;;5031283;28;20041;-79
2022/01/30 07:57:23;;;;;;;46.97;6.95;;;6.30;99.90;;;;;;5013236;28;20065;-81
2022/01/30 07:59:49;;;;;;;38.83;7.13;;;5.40;99.90;;;;;;5013784;28;20085;-80
2022/01/30 08:02:15;;;;;;;40.55;6.22;;;5.40;99.90;;;;;;5013052;28;20037;-79
2022/01/30 08:04:40;;;;;;;31.05;6.18;;;5.40;99.90;;;;;;5013384;28;20049;-79
2022/01/30 08:07:07;;;;;;;47.90;7.05;;;5.40;99.90;;;;;;5031293;28;20045;-78
2022/01/30 08:09:32;;;;;;;41.30;6.88;;;5.40;99.90;;;;;;5030586;28;20045;-79
2022/01/30 08:11:59;;;;;;;39.42;5.95;;;5.40;99.90;;;;;;5030730;28;20428;-79
2022/01/30 08:14:25;;;;;;;44.47;6.78;;;5.40;99.90;;;;;;5030976;28;20088;-79
2022/01/30 08:16:50;;;;;;;33.33;6.60;;;5.40;99.90;;;;;;5012865;28;20077;-82
2022/01/30 08:19:18;;;;;;;39.15;5.88;;;5.40;99.90;;;;;;5031170;28;20518;-79
2022/01/30 08:21:44;;;;;;;44.03;7.10;;;5.30;99.90;;;;;;5030980;28;20084;-85
2022/01/30 08:24:09;;;;;;;35.67;6.28;;;6.40;99.90;;;;;;5012901;28;20053;-79
2022/01/30 08:26:35;;;;;;;32.15;6.40;;;5.30;99.90;;;;;;5030404;28;20041;-81
2022/01/30 08:29:00;;;;;;;44.35;7.38;;;5.30;99.90;;;;;;5038741;28;20045;-80
2022/01/30 08:31:26;;;;;;;44.05;6.70;;;5.30;99.90;;;;;;5013519;28;20053;-80
2022/01/30 08:33:52;;;;;;;43.03;7.03;;;5.30;99.90;;;;;;5013158;28;20484;-80
2022/01/30 08:36:17;;;;;;;51.67;8.15;;;5.30;99.90;;;;;;5030153;28;20481;-80
2022/01/30 08:38:43;;;;;;;45.35;7.70;;;5.20;99.90;;;;;;5030758;28;20045;-81
2022/01/30 08:41:08;;;;;;;38.55;6.45;;;5.30;99.90;;;;;;5012677;28;20048;-80
2022/01/30 08:43:36;;;;;;;54.38;8.10;;;5.40;99.90;;;;;;5030597;28;20045;-79
2022/01/30 08:46:02;;;;;;;42.67;7.25;;;5.40;99.90;;;;;;5012620;28;20124;-81
2022/01/30 08:48:30;;;;;;;52.22;8.27;;;5.40;99.90;;;;;;5030600;28;20067;-79
2022/01/30 08:50:56;;;;;;;52.72;7.78;;;5.40;99.90;;;;;;5013480;28;20057;-80
2022/01/30 08:53:21;;;;;;;37.33;6.18;;;5.40;99.90;;;;;;5030619;28;20477;-82
2022/01/30 08:55:47;;;;;;;38.28;7.40;;;5.50;99.90;;;;;;5012094;28;20111;-79
2022/01/30 08:58:13;;;;;;;55.03;7.75;;;5.50;99.90;;;;;;5030377;28;20061;-79
2022/01/30 09:00:42;;;;;;;38.45;6.75;;;5.50;99.90;;;;;;5030111;28;20049;-80
2022/01/30 09:03:08;;;;;;;45.70;7.65;;;5.50;99.90;;;;;;4995139;28;20068;-86
2022/01/30 09:05:34;;;;;;;50.78;9.43;;;5.50;99.90;;;;;;5030228;28;20052;-79
2022/01/30 09:08:04;;;;;;;43.20;6.88;;;5.50;99.90;;;;;;5030121;28;20124;-78
2022/01/30 09:10:34;;;;;;;40.97;7.68;;;5.50;99.90;;;;;;5012286;28;20464;-79
2022/01/30 09:13:00;;;;;;;48.58;7.63;;;5.60;99.90;;;;;;5029636;28;20049;-79
2022/01/30 09:15:25;;;;;;;53.30;6.47;;;5.70;99.90;;;;;;5030268;28;20045;-80
2022/01/30 09:17:57;;;;;;;48.33;7.97;;;5.70;99.90;;;;;;5029560;28;20041;-79
2022/01/30 09:20:23;;;;;;;43.38;7.43;;;5.70;99.90;;;;;;5012298;28;20061;-80
2022/01/30 09:22:51;;;;;;;54.50;7.20;;;5.60;99.90;;;;;;5029188;28;20538;-81
2022/01/30 09:25:17;;;;;;;40.50;7.65;;;5.70;99.90;;;;;;5028503;28;20087;-83
2022/01/30 09:27:43;;;;;;;47.25;8.10;;;5.80;99.90;;;;;;5011789;28;20057;-80
2022/01/30 09:30:10;;;;;;;63.90;7.72;;;6.80;99.90;;;;;;5030044;28;20076;-79
2022/01/30 09:32:36;;;;;;;55.17;7.57;;;6.00;99.90;;;;;;5011242;28;20682;-77
2022/01/30 09:35:03;;;;;;;50.58;7.03;;;6.00;99.90;;;;;;5012598;28;20053;-78
2022/01/30 09:37:28;;;;;;;52.20;8.77;;;6.00;99.90;;;;;;5012890;28;20115;-81
2022/01/30 09:39:54;;;;;;;47.25;7.43;;;6.00;99.90;;;;;;5012261;28;20492;-77
2022/01/30 09:42:24;;;;;;;47.78;7.90;;;6.00;99.90;;;;;;5011745;28;20144;-80
2022/01/30 09:44:50;;;;;;;37.42;7.50;;;6.00;99.90;;;;;;5029433;28;20107;-79
2022/01/30 09:47:17;;;;;;;43.28;7.07;;;6.00;99.90;;;;;;5029585;28;20040;-80
2022/01/30 09:49:51;;;;;;;42.35;7.30;;;6.20;99.90;;;;;;5030128;28;20060;-80
2022/01/30 09:52:17;;;;;;;40.70;7.53;;;6.30;99.90;;;;;;5029453;28;20578;-78
2022/01/30 09:54:43;;;;;;;41.53;6.90;;;6.70;99.90;;;;;;5029477;28;20041;-81
2022/01/30 09:57:09;;;;;;;41.55;6.18;;;6.90;99.90;;;;;;5011066;28;20052;-78
2022/01/30 09:59:34;;;;;;;42.80;7.38;;;6.50;99.90;;;;;;4994362;28;20069;-78
2022/01/30 10:02:05;;;;;;;43.90;7.10;;;6.60;99.90;;;;;;5012096;28;20057;-78
2022/01/30 10:04:31;;;;;;;50.83;6.68;;;6.70;99.90;;;;;;5011973;28;20508;-79
2022/01/30 10:07:02;;;;;;;37.00;6.50;;;7.10;99.90;;;;;;5011773;28;20050;-79
2022/01/30 10:09:32;;;;;;;40.22;7.57;;;6.80;99.90;;;;;;5029277;28;20501;-80
2022/01/30 10:14:58;;;;;;;45.47;6.30;;;7.10;99.90;;;;;;5022335;28;20072;-82
2022/01/30 10:17:31;;;;;;;36.63;6.07;;;7.10;99.90;;;;;;5029152;28;20056;-80
2022/01/30 10:20:09;;;;;;;42.45;7.70;;;7.10;99.90;;;;;;5011687;28;20046;-79
2022/01/30 10:22:45;;;;;;;48.53;7.82;;;7.00;99.90;;;;;;5011377;28;20052;-83
2022/01/30 10:25:27;;;;;;;41.90;7.25;;;7.00;99.90;;;;;;5028736;28;20037;-78
2022/01/30 10:28:05;;;;;;;44.42;7.15;;;6.90;99.90;;;;;;5005717;28;20057;-79
2022/01/30 10:30:52;;;;;;;47.65;7.65;;;6.80;99.90;;;;;;5029035;28;20045;-79
2022/01/30 10:33:42;;;;;;;55.47;8.40;;;6.70;99.90;;;;;;5028784;28;20050;-80
2022/01/30 10:36:09;;;;;;;59.58;9.98;;;6.80;99.90;;;;;;4992057;28;20053;-80
2022/01/30 10:38:48;;;;;;;51.63;8.10;;;6.80;99.90;;;;;;5028881;28;20041;-78
2022/01/30 10:41:17;;;;;;;40.85;6.30;;;6.70;99.90;;;;;;5029068;28;20041;-80
2022/01/30 10:44:07;;;;;;;53.75;8.50;;;6.70;99.90;;;;;;5021581;28;20116;-80
2022/01/30 10:46:43;;;;;;;45.38;7.32;;;6.80;99.90;;;;;;5003182;28;20049;-80
2022/01/30 10:49:16;;;;;;;47.85;6.20;;;6.90;99.90;;;;;;4994783;28;20037;-78
2022/01/30 10:51:59;;;;;;;49.78;6.47;;;7.00;99.90;;;;;;5028992;28;20128;-81
2022/01/30 10:54:29;;;;;;;47.67;7.53;;;7.10;99.90;;;;;;5028496;28;20530;-79
2022/01/30 10:57:21;;;;;;;48.53;7.20;;;8.00;99.90;;;;;;5029032;28;20139;-79
2022/01/30 10:59:53;;;;;;;38.88;6.57;;;7.40;99.90;;;;;;5027872;28;20042;-79
2022/01/30 11:02:22;;;;;;;36.28;6.97;;;8.00;99.90;;;;;;5014736;28;20077;-80
2022/01/30 11:04:49;;;;;;;43.47;6.57;;;8.10;99.90;;;;;;5008330;28;20041;-82
2022/01/30 11:07:17;;;;;;;39.85;6.22;;;8.50;99.90;;;;;;5032795;28;20053;-79
2022/01/30 11:10:20;;;;;;;39.75;5.70;;;8.50;99.90;;;;;;5014887;28;20049;-84
2022/01/30 11:12:56;;;;;;;41.17;6.00;;;7.90;99.90;;;;;;5015017;28;20404;-82
2022/01/30 11:17:54;;;;;;;38.63;7.20;;;7.70;99.90;;;;;;5015242;28;20061;-81
2022/01/30 11:20:21;;;;;;;43.78;6.35;;;7.60;99.90;;;;;;5014406;28;20463;-81
2022/01/30 11:22:48;;;;;;;36.70;6.32;;;7.70;99.90;;;;;;5032905;28;20049;-83
2022/01/30 11:25:16;;;;;;;43.47;6.85;;;8.40;99.90;;;;;;5014658;28;20058;-80
2022/01/30 11:27:43;;;;;;;39.15;6.68;;;7.80;99.90;;;;;;5014731;28;20057;-82
2022/01/30 11:30:10;;;;;;;48.15;7.55;;;7.90;99.90;;;;;;5032440;28;20447;-81
2022/01/30 11:32:37;;;;;;;40.70;7.05;;;8.00;99.90;;;;;;5032396;28;20091;-82
2022/01/30 11:35:03;;;;;;;42.80;7.00;;;8.50;99.90;;;;;;5032230;28;20488;-82
2022/01/30 11:37:32;;;;;;;43.67;6.57;;;8.10;99.90;;;;;;5032610;28;20211;-81
2022/01/30 11:39:58;;;;;;;47.33;6.70;;;8.20;99.90;;;;;;5032127;28;20049;-81
2022/01/30 11:42:47;;;;;;;51.42;6.88;;;9.10;99.90;;;;;;5032405;28;20388;-81
2022/01/30 11:45:28;;;;;;;43.00;6.97;;;8.60;99.90;;;;;;5014258;28;20049;-83
2022/01/30 11:48:01;;;;;;;49.42;6.63;;;8.30;99.90;;;;;;5032338;28;20053;-81
2022/01/30 11:50:29;;;;;;;37.50;6.20;;;8.20;99.90;;;;;;5014478;28;20370;-81
2022/01/30 11:53:10;;;;;;;36.85;7.88;;;8.10;99.90;;;;;;5032421;28;20098;-80
2022/01/30 11:55:51;;;;;;;47.90;6.78;;;8.00;99.90;;;;;;5014150;28;20132;-80
2022/01/30 11:58:29;;;;;;;33.38;6.80;;;8.60;99.90;;;;;;5014703;28;20088;-80
2022/01/30 12:00:55;;;;;;;45.33;6.00;;;7.90;99.90;;;;;;5013805;28;20050;-78
2022/01/30 12:03:32;;;;;;;49.60;7.50;;;9.00;99.90;;;;;;5031975;28;20037;-82
2022/01/30 12:06:20;;;;;;;42.38;6.55;;;8.00;99.90;;;;;;5031293;28;20120;-81
2022/01/30 12:08:48;;;;;;;45.60;7.07;;;8.00;99.90;;;;;;5030625;28;20106;-80
2022/01/30 12:11:35;;;;;;;33.38;6.45;;;9.10;99.90;;;;;;5030859;28;20754;-81
2022/01/30 12:14:12;;;;;;;43.30;7.80;;;8.20;99.90;;;;;;5024318;28;20045;-81
2022/01/30 12:16:48;;;;;;;32.90;6.28;;;8.10;99.90;;;;;;5030998;28;20493;-80
2022/01/30 12:19:19;;;;;;;44.88;6.82;;;7.90;99.90;;;;;;5031384;28;20102;-79
2022/01/30 12:21:45;;;;;;;38.17;7.18;;;7.80;99.90;;;;;;4998557;28;20124;-87
2022/01/30 12:24:28;;;;;;;40.90;6.40;;;7.80;99.90;;;;;;5031002;28;20466;-82
2022/01/30 12:27:00;;;;;;;40.35;7.45;;;7.70;99.90;;;;;;5013031;28;20037;-80
2022/01/30 12:29:36;;;;;;;40.92;6.95;;;7.60;99.90;;;;;;5031081;28;20056;-81
2022/01/30 12:32:20;;;;;;;47.03;7.50;;;8.00;99.90;;;;;;5030663;28;20051;-81
2022/01/30 12:35:06;;;;;;;59.17;7.88;;;7.80;99.90;;;;;;5030915;28;20071;-79
2022/01/30 12:37:34;;;;;;;34.70;6.03;;;7.80;99.90;;;;;;5012623;28;20052;-81
2022/01/30 12:40:10;;;;;;;46.85;7.10;;;7.60;99.90;;;;;;5013200;28;20053;-80
2022/01/30 12:42:36;;;;;;;48.55;6.53;;;7.40;99.90;;;;;;5030715;28;20399;-80
2022/01/30 12:45:04;;;;;;;36.78;6.72;;;7.40;99.90;;;;;;5030597;28;20476;-81
2022/01/30 12:47:30;;;;;;;39.53;6.95;;;7.50;99.90;;;;;;5012676;28;20415;-81
2022/01/30 12:49:59;;;;;;;42.80;6.57;;;7.60;99.90;;;;;;5030914;28;20045;-80
2022/01/30 12:54:59;;;;;;;46.10;6.80;;;7.80;99.90;;;;;;5013170;28;20099;-81
2022/01/30 12:57:27;;;;;;;44.58;7.18;;;8.60;99.90;;;;;;5030324;28;20049;-85
2022/01/30 12:59:57;;;;;;;41.92;6.50;;;8.50;99.90;;;;;;5030205;28;20461;-81
2022/01/30 13:02:23;;;;;;;42.17;6.22;;;7.90;99.90;;;;;;5011903;28;20045;-81
2022/01/30 13:05:04;;;;;;;41.63;6.30;;;9.10;99.90;;;;;;5030068;28;20586;-85
2022/01/30 13:07:29;;;;;;;34.35;5.47;;;8.10;99.90;;;;;;5012457;28;20072;-79
2022/01/30 13:10:05;;;;;;;43.65;6.75;;;8.30;99.90;;;;;;5022187;28;20412;-79
2022/01/30 13:12:32;;;;;;;32.65;5.25;;;8.40;99.90;;;;;;5030061;28;20465;-79
2022/01/30 13:14:58;;;;;;;39.55;6.05;;;8.70;99.90;;;;;;5029891;28;20045;-80
2022/01/30 13:17:30;;;;;;;30.63;5.47;;;8.00;99.90;;;;;;5029841;28;20052;-81
2022/01/30 13:19:56;;;;;;;30.95;5.53;;;8.20;99.90;;;;;;5029635;28;20045;-81
2022/01/30 13:22:33;;;;;;;38.92;5.28;;;7.80;99.90;;;;;;5029024;28;20055;-81
2022/01/30 13:25:02;;;;;;;34.80;5.47;;;7.40;99.90;;;;;;5029309;28;20045;-80
2022/01/30 13:27:28;;;;;;;29.70;5.07;;;7.50;99.90;;;;;;5030241;28;20124;-79
2022/01/30 13:29:55;;;;;;;34.70;6.65;;;7.80;99.90;;;;;;5029928;28;20049;-79
2022/01/30 13:32:22;;;;;;;32.53;5.55;;;8.40;99.90;;;;;;5011664;28;20088;-81
2022/01/30 13:34:49;;;;;;;36.75;5.63;;;7.60;99.90;;;;;;5011797;28;20100;-80
2022/01/30 13:37:20;;;;;;;37.63;6.40;;;8.00;99.90;;;;;;5029793;28;20046;-79
2022/01/30 13:42:40;;;;;;;28.75;5.07;;;7.60;99.90;;;;;;5032097;28;20056;-80
2022/01/30 13:48:03;;;;;;;36.63;5.80;;;7.40;99.90;;;;;;5028986;28;20136;-78
2022/01/30 13:50:44;;;;;;;36.15;6.25;;;7.50;99.90;;;;;;5029761;28;20046;-79
2022/01/30 13:53:11;;;;;;;36.90;5.85;;;7.50;99.90;;;;;;5021835;28;20818;-79
2022/01/30 13:55:52;;;;;;;35.08;6.38;;;8.10;99.90;;;;;;5011242;28;20079;-79
2022/01/30 13:58:20;;;;;;;36.78;6.20;;;7.40;99.90;;;;;;5022582;28;20046;-82
2022/01/30 14:00:47;;;;;;;36.85;5.75;;;7.40;99.90;;;;;;5056856;23;20060;-78
2022/01/30 14:03:25;;;;;;;43.13;6.60;;;7.50;99.90;;;;;;4995396;28;20054;-82
2022/01/30 14:05:52;;;;;;;32.85;5.70;;;8.00;99.90;;;;;;5002056;28;20099;-80
2022/01/30 14:08:18;;;;;;;36.90;6.43;;;7.40;99.90;;;;;;5028836;28;20044;-81